sensor_id;sensor_type;location;lat;lon;timestamp;P1;durP1;ratioP1;P2;durP2;ratioP2
74791;SDS011;63319;46.046;17.802;2023-12-20T00:02:54;72.53;;;38.65;;
74791;SDS011;63319;46.046;17.802;2023-12-20T00:05:57;75.00;;;36.50;;
74791;SDS011;63319;46.046;17.802;2023-12-20T00:09:01;66.28;;;34.65;;
74791;SDS011;63319;46.046;17.802;2023-12-20T00:12:04;72.78;;;39.40;;
74791;SDS011;63319;46.046;17.802;2023-12-20T00:15:07;76.07;;;41.27;;
74791;SDS011;63319;46.046;17.802;2023-12-20T00:18:11;73.47;;;37.72;;
74791;SDS011;63319;46.046;17.802;2023-12-20T00:21:14;71.90;;;39.58;;
74791;SDS011;63319;46.046;17.802;2023-12-20T00:24:17;66.25;;;36.35;;
74791;SDS011;63319;46.046;17.802;2023-12-20T00:27:20;70.55;;;35.75;;
74791;SDS011;63319;46.046;17.802;2023-12-20T00:30:23;69.45;;;36.92;;
74791;SDS011;63319;46.046;17.802;2023-12-20T00:33:26;75.10;;;40.08;;
74791;SDS011;63319;46.046;17.802;2023-12-20T00:36:29;64.73;;;36.77;;
74791;SDS011;63319;46.046;17.802;2023-12-20T00:39:32;68.47;;;38.63;;
74791;SDS011;63319;46.046;17.802;2023-12-20T00:42:35;75.40;;;39.33;;
74791;SDS011;63319;46.046;17.802;2023-12-20T00:45:38;83.00;;;38.50;;
74791;SDS011;63319;46.046;17.802;2023-12-20T00:48:41;62.40;;;35.38;;
74791;SDS011;63319;46.046;17.802;2023-12-20T00:51:44;66.47;;;36.40;;
74791;SDS011;63319;46.046;17.802;2023-12-20T00:54:48;67.15;;;35.70;;
74791;SDS011;63319;46.046;17.802;2023-12-20T00:57:51;63.28;;;34.85;;
74791;SDS011;63319;46.046;17.802;2023-12-20T01:00:56;71.63;;;36.17;;
74791;SDS011;63319;46.046;17.802;2023-12-20T01:04:01;69.38;;;37.00;;
74791;SDS011;63319;46.046;17.802;2023-12-20T01:07:04;69.67;;;38.63;;
74791;SDS011;63319;46.046;17.802;2023-12-20T01:10:07;68.05;;;37.90;;
74791;SDS011;63319;46.046;17.802;2023-12-20T01:13:11;70.85;;;37.00;;
74791;SDS011;63319;46.046;17.802;2023-12-20T01:16:14;66.20;;;35.40;;
74791;SDS011;63319;46.046;17.802;2023-12-20T01:19:17;79.13;;;40.75;;
74791;SDS011;63319;46.046;17.802;2023-12-20T01:22:21;77.47;;;38.40;;
74791;SDS011;63319;46.046;17.802;2023-12-20T01:25:24;65.32;;;36.88;;
74791;SDS011;63319;46.046;17.802;2023-12-20T01:28:27;74.03;;;37.58;;
74791;SDS011;63319;46.046;17.802;2023-12-20T01:31:30;77.38;;;39.83;;
74791;SDS011;63319;46.046;17.802;2023-12-20T01:34:33;70.90;;;38.80;;
74791;SDS011;63319;46.046;17.802;2023-12-20T01:37:36;82.13;;;41.03;;
74791;SDS011;63319;46.046;17.802;2023-12-20T01:40:40;74.97;;;39.85;;
74791;SDS011;63319;46.046;17.802;2023-12-20T01:43:42;71.93;;;36.50;;
74791;SDS011;63319;46.046;17.802;2023-12-20T01:46:53;69.80;;;38.03;;
74791;SDS011;63319;46.046;17.802;2023-12-20T01:49:56;72.45;;;37.13;;
74791;SDS011;63319;46.046;17.802;2023-12-20T01:53:00;68.28;;;38.42;;
74791;SDS011;63319;46.046;17.802;2023-12-20T01:56:03;68.30;;;37.42;;
74791;SDS011;63319;46.046;17.802;2023-12-20T01:59:07;77.82;;;42.58;;
74791;SDS011;63319;46.046;17.802;2023-12-20T02:02:11;71.25;;;38.97;;
74791;SDS011;63319;46.046;17.802;2023-12-20T02:05:15;72.50;;;40.35;;
74791;SDS011;63319;46.046;17.802;2023-12-20T02:08:19;68.97;;;39.50;;
74791;SDS011;63319;46.046;17.802;2023-12-20T02:11:22;72.32;;;37.97;;
74791;SDS011;63319;46.046;17.802;2023-12-20T02:14:25;73.72;;;37.42;;
74791;SDS011;63319;46.046;17.802;2023-12-20T02:17:28;67.87;;;38.43;;
74791;SDS011;63319;46.046;17.802;2023-12-20T02:20:32;67.10;;;38.78;;
74791;SDS011;63319;46.046;17.802;2023-12-20T02:23:35;67.00;;;37.67;;
74791;SDS011;63319;46.046;17.802;2023-12-20T02:26:39;63.70;;;35.53;;
74791;SDS011;63319;46.046;17.802;2023-12-20T02:29:46;58.58;;;33.72;;
74791;SDS011;63319;46.046;17.802;2023-12-20T02:32:50;63.78;;;33.83;;
74791;SDS011;63319;46.046;17.802;2023-12-20T02:35:54;56.88;;;31.15;;
74791;SDS011;63319;46.046;17.802;2023-12-20T02:38:58;62.57;;;32.40;;
74791;SDS011;63319;46.046;17.802;2023-12-20T02:42:01;61.45;;;31.63;;
74791;SDS011;63319;46.046;17.802;2023-12-20T02:45:04;61.60;;;33.28;;
74791;SDS011;63319;46.046;17.802;2023-12-20T02:48:07;58.43;;;33.03;;
74791;SDS011;63319;46.046;17.802;2023-12-20T02:51:10;69.10;;;36.00;;
74791;SDS011;63319;46.046;17.802;2023-12-20T02:54:13;65.55;;;35.15;;
74791;SDS011;63319;46.046;17.802;2023-12-20T02:57:16;70.18;;;36.40;;
74791;SDS011;63319;46.046;17.802;2023-12-20T03:00:19;65.18;;;34.75;;
74791;SDS011;63319;46.046;17.802;2023-12-20T03:03:22;68.57;;;37.15;;
74791;SDS011;63319;46.046;17.802;2023-12-20T03:06:25;59.53;;;32.70;;
74791;SDS011;63319;46.046;17.802;2023-12-20T03:09:28;61.37;;;33.53;;
74791;SDS011;63319;46.046;17.802;2023-12-20T03:12:39;68.60;;;33.25;;
74791;SDS011;63319;46.046;17.802;2023-12-20T03:15:43;75.07;;;37.75;;
74791;SDS011;63319;46.046;17.802;2023-12-20T03:18:47;74.07;;;39.57;;
74791;SDS011;63319;46.046;17.802;2023-12-20T03:21:50;72.95;;;40.17;;
74791;SDS011;63319;46.046;17.802;2023-12-20T03:24:53;77.93;;;39.38;;
74791;SDS011;63319;46.046;17.802;2023-12-20T03:27:56;82.50;;;42.30;;
74791;SDS011;63319;46.046;17.802;2023-12-20T03:30:59;84.35;;;40.88;;
74791;SDS011;63319;46.046;17.802;2023-12-20T03:34:02;77.32;;;43.72;;
74791;SDS011;63319;46.046;17.802;2023-12-20T03:37:05;77.60;;;41.67;;
74791;SDS011;63319;46.046;17.802;2023-12-20T03:40:09;71.53;;;38.90;;
74791;SDS011;63319;46.046;17.802;2023-12-20T03:43:12;73.90;;;37.85;;
74791;SDS011;63319;46.046;17.802;2023-12-20T03:46:15;65.38;;;34.28;;
74791;SDS011;63319;46.046;17.802;2023-12-20T03:49:19;58.43;;;32.70;;
74791;SDS011;63319;46.046;17.802;2023-12-20T03:52:22;63.70;;;34.72;;
74791;SDS011;63319;46.046;17.802;2023-12-20T03:55:25;56.05;;;32.22;;
74791;SDS011;63319;46.046;17.802;2023-12-20T03:58:28;62.13;;;34.85;;
74791;SDS011;63319;46.046;17.802;2023-12-20T04:01:31;68.30;;;35.88;;
74791;SDS011;63319;46.046;17.802;2023-12-20T04:04:34;64.63;;;34.50;;
74791;SDS011;63319;46.046;17.802;2023-12-20T04:07:37;58.92;;;34.35;;
74791;SDS011;63319;46.046;17.802;2023-12-20T04:10:41;53.53;;;29.53;;
74791;SDS011;63319;46.046;17.802;2023-12-20T04:13:44;58.25;;;33.80;;
74791;SDS011;63319;46.046;17.802;2023-12-20T04:16:47;66.30;;;36.00;;
74791;SDS011;63319;46.046;17.802;2023-12-20T04:19:50;62.17;;;34.10;;
74791;SDS011;63319;46.046;17.802;2023-12-20T04:22:54;57.30;;;31.77;;
74791;SDS011;63319;46.046;17.802;2023-12-20T04:25:56;58.95;;;34.03;;
74791;SDS011;63319;46.046;17.802;2023-12-20T04:29:00;63.80;;;36.78;;
74791;SDS011;63319;46.046;17.802;2023-12-20T04:32:03;68.38;;;38.15;;
74791;SDS011;63319;46.046;17.802;2023-12-20T04:35:07;72.18;;;39.58;;
74791;SDS011;63319;46.046;17.802;2023-12-20T04:38:11;81.03;;;43.45;;
74791;SDS011;63319;46.046;17.802;2023-12-20T04:41:14;76.70;;;43.80;;
74791;SDS011;63319;46.046;17.802;2023-12-20T04:44:18;79.38;;;41.30;;
74791;SDS011;63319;46.046;17.802;2023-12-20T04:47:21;77.47;;;40.15;;
74791;SDS011;63319;46.046;17.802;2023-12-20T04:50:24;78.53;;;39.27;;
74791;SDS011;63319;46.046;17.802;2023-12-20T04:53:28;83.00;;;39.47;;
74791;SDS011;63319;46.046;17.802;2023-12-20T04:56:31;85.93;;;40.53;;
74791;SDS011;63319;46.046;17.802;2023-12-20T04:59:33;84.95;;;43.53;;
74791;SDS011;63319;46.046;17.802;2023-12-20T05:02:36;89.72;;;44.30;;
74791;SDS011;63319;46.046;17.802;2023-12-20T05:05:40;122.13;;;46.75;;
74791;SDS011;63319;46.046;17.802;2023-12-20T05:08:43;134.25;;;44.28;;
74791;SDS011;63319;46.046;17.802;2023-12-20T05:11:46;155.73;;;44.33;;
74791;SDS011;63319;46.046;17.802;2023-12-20T05:14:49;174.68;;;49.08;;
74791;SDS011;63319;46.046;17.802;2023-12-20T05:17:52;188.43;;;49.33;;
74791;SDS011;63319;46.046;17.802;2023-12-20T05:20:55;145.13;;;47.33;;
74791;SDS011;63319;46.046;17.802;2023-12-20T05:24:01;145.07;;;42.95;;
74791;SDS011;63319;46.046;17.802;2023-12-20T05:27:04;156.85;;;40.10;;
74791;SDS011;63319;46.046;17.802;2023-12-20T05:30:07;123.82;;;36.53;;
74791;SDS011;63319;46.046;17.802;2023-12-20T05:33:10;125.38;;;39.05;;
74791;SDS011;63319;46.046;17.802;2023-12-20T05:36:13;103.00;;;38.00;;
74791;SDS011;63319;46.046;17.802;2023-12-20T05:39:17;102.43;;;36.80;;
74791;SDS011;63319;46.046;17.802;2023-12-20T05:42:21;77.83;;;32.90;;
74791;SDS011;63319;46.046;17.802;2023-12-20T05:45:24;75.18;;;33.10;;
74791;SDS011;63319;46.046;17.802;2023-12-20T05:48:27;85.10;;;33.47;;
74791;SDS011;63319;46.046;17.802;2023-12-20T05:51:30;85.37;;;35.47;;
74791;SDS011;63319;46.046;17.802;2023-12-20T05:54:33;108.32;;;37.42;;
74791;SDS011;63319;46.046;17.802;2023-12-20T05:57:36;100.97;;;38.65;;
74791;SDS011;63319;46.046;17.802;2023-12-20T06:00:39;115.93;;;39.03;;
74791;SDS011;63319;46.046;17.802;2023-12-20T06:03:43;124.18;;;43.28;;
74791;SDS011;63319;46.046;17.802;2023-12-20T06:06:46;104.85;;;43.38;;
74791;SDS011;63319;46.046;17.802;2023-12-20T06:09:49;98.68;;;41.70;;
74791;SDS011;63319;46.046;17.802;2023-12-20T06:12:53;72.83;;;37.07;;
74791;SDS011;63319;46.046;17.802;2023-12-20T06:15:56;70.95;;;35.30;;
74791;SDS011;63319;46.046;17.802;2023-12-20T06:19:00;68.80;;;34.88;;
74791;SDS011;63319;46.046;17.802;2023-12-20T06:22:03;70.23;;;35.30;;
74791;SDS011;63319;46.046;17.802;2023-12-20T06:25:06;64.13;;;32.70;;
74791;SDS011;63319;46.046;17.802;2023-12-20T06:28:09;63.35;;;31.73;;
74791;SDS011;63319;46.046;17.802;2023-12-20T06:31:13;59.65;;;31.05;;
74791;SDS011;63319;46.046;17.802;2023-12-20T06:34:16;65.43;;;31.25;;
74791;SDS011;63319;46.046;17.802;2023-12-20T06:37:19;53.80;;;29.23;;
74791;SDS011;63319;46.046;17.802;2023-12-20T06:40:22;62.38;;;32.72;;
74791;SDS011;63319;46.046;17.802;2023-12-20T06:43:25;59.57;;;32.93;;
74791;SDS011;63319;46.046;17.802;2023-12-20T06:46:48;60.30;;;32.53;;
74791;SDS011;63319;46.046;17.802;2023-12-20T06:49:51;53.28;;;29.98;;
74791;SDS011;63319;46.046;17.802;2023-12-20T06:52:54;50.37;;;30.00;;
74791;SDS011;63319;46.046;17.802;2023-12-20T06:55:57;49.85;;;29.52;;
74791;SDS011;63319;46.046;17.802;2023-12-20T06:59:00;54.33;;;31.77;;
74791;SDS011;63319;46.046;17.802;2023-12-20T07:02:03;53.75;;;29.48;;
74791;SDS011;63319;46.046;17.802;2023-12-20T07:05:06;51.53;;;30.55;;
74791;SDS011;63319;46.046;17.802;2023-12-20T07:08:09;54.47;;;31.58;;
74791;SDS011;63319;46.046;17.802;2023-12-20T07:11:13;50.92;;;28.98;;
74791;SDS011;63319;46.046;17.802;2023-12-20T07:14:16;59.43;;;32.93;;
74791;SDS011;63319;46.046;17.802;2023-12-20T07:17:19;57.45;;;31.83;;
74791;SDS011;63319;46.046;17.802;2023-12-20T07:20:22;67.43;;;34.60;;
74791;SDS011;63319;46.046;17.802;2023-12-20T07:23:26;67.50;;;35.13;;
74791;SDS011;63319;46.046;17.802;2023-12-20T07:26:29;65.30;;;34.70;;
74791;SDS011;63319;46.046;17.802;2023-12-20T07:29:32;70.63;;;38.10;;
74791;SDS011;63319;46.046;17.802;2023-12-20T07:32:35;63.45;;;36.03;;
74791;SDS011;63319;46.046;17.802;2023-12-20T07:35:38;70.38;;;37.60;;
74791;SDS011;63319;46.046;17.802;2023-12-20T07:38:42;193.75;;;103.75;;
74791;SDS011;63319;46.046;17.802;2023-12-20T07:41:46;96.78;;;55.10;;
74791;SDS011;63319;46.046;17.802;2023-12-20T07:44:49;74.57;;;42.43;;
74791;SDS011;63319;46.046;17.802;2023-12-20T07:47:53;59.75;;;35.05;;
74791;SDS011;63319;46.046;17.802;2023-12-20T07:50:56;52.13;;;31.20;;
74791;SDS011;63319;46.046;17.802;2023-12-20T07:54:00;140.93;;;84.80;;
74791;SDS011;63319;46.046;17.802;2023-12-20T07:57:03;109.93;;;65.03;;
74791;SDS011;63319;46.046;17.802;2023-12-20T08:00:06;83.93;;;52.67;;
74791;SDS011;63319;46.046;17.802;2023-12-20T08:03:11;74.95;;;46.65;;
74791;SDS011;63319;46.046;17.802;2023-12-20T08:06:20;64.95;;;38.35;;
74791;SDS011;63319;46.046;17.802;2023-12-20T08:09:25;75.82;;;42.65;;
74791;SDS011;63319;46.046;17.802;2023-12-20T08:12:29;69.80;;;41.85;;
74791;SDS011;63319;46.046;17.802;2023-12-20T08:15:32;59.23;;;37.80;;
74791;SDS011;63319;46.046;17.802;2023-12-20T08:18:35;47.55;;;30.85;;
74791;SDS011;63319;46.046;17.802;2023-12-20T08:21:38;41.15;;;27.38;;
74791;SDS011;63319;46.046;17.802;2023-12-20T08:24:41;42.97;;;27.80;;
74791;SDS011;63319;46.046;17.802;2023-12-20T08:27:45;42.95;;;27.38;;
74791;SDS011;63319;46.046;17.802;2023-12-20T08:30:48;38.38;;;26.10;;
74791;SDS011;63319;46.046;17.802;2023-12-20T08:33:51;44.55;;;27.40;;
74791;SDS011;63319;46.046;17.802;2023-12-20T08:36:55;53.00;;;33.97;;
74791;SDS011;63319;46.046;17.802;2023-12-20T08:39:58;48.47;;;32.00;;
74791;SDS011;63319;46.046;17.802;2023-12-20T08:43:01;49.08;;;32.25;;
74791;SDS011;63319;46.046;17.802;2023-12-20T08:46:04;37.63;;;27.90;;
74791;SDS011;63319;46.046;17.802;2023-12-20T08:49:07;54.92;;;38.45;;
74791;SDS011;63319;46.046;17.802;2023-12-20T08:52:12;42.60;;;30.35;;
74791;SDS011;63319;46.046;17.802;2023-12-20T08:55:15;38.60;;;26.58;;
74791;SDS011;63319;46.046;17.802;2023-12-20T08:58:20;39.58;;;25.42;;
74791;SDS011;63319;46.046;17.802;2023-12-20T09:01:23;36.88;;;24.48;;
74791;SDS011;63319;46.046;17.802;2023-12-20T09:04:26;42.17;;;25.88;;
74791;SDS011;63319;46.046;17.802;2023-12-20T09:07:29;41.10;;;26.47;;
74791;SDS011;63319;46.046;17.802;2023-12-20T09:10:35;36.30;;;24.58;;
74791;SDS011;63319;46.046;17.802;2023-12-20T09:13:39;37.47;;;24.55;;
74791;SDS011;63319;46.046;17.802;2023-12-20T09:16:42;38.00;;;24.43;;
74791;SDS011;63319;46.046;17.802;2023-12-20T09:19:46;38.60;;;23.85;;
74791;SDS011;63319;46.046;17.802;2023-12-20T09:22:50;40.28;;;25.70;;
74791;SDS011;63319;46.046;17.802;2023-12-20T09:25:54;41.38;;;25.83;;
74791;SDS011;63319;46.046;17.802;2023-12-20T09:28:59;44.93;;;27.93;;
74791;SDS011;63319;46.046;17.802;2023-12-20T09:32:03;65.10;;;35.05;;
74791;SDS011;63319;46.046;17.802;2023-12-20T09:35:06;90.53;;;44.22;;
74791;SDS011;63319;46.046;17.802;2023-12-20T09:38:11;69.87;;;38.33;;
74791;SDS011;63319;46.046;17.802;2023-12-20T09:41:15;61.63;;;35.78;;
74791;SDS011;63319;46.046;17.802;2023-12-20T09:44:18;55.83;;;31.88;;
74791;SDS011;63319;46.046;17.802;2023-12-20T09:47:22;53.67;;;31.17;;
74791;SDS011;63319;46.046;17.802;2023-12-20T09:50:26;64.10;;;34.50;;
74791;SDS011;63319;46.046;17.802;2023-12-20T09:53:30;64.50;;;33.92;;
74791;SDS011;63319;46.046;17.802;2023-12-20T09:56:36;56.90;;;31.90;;
74791;SDS011;63319;46.046;17.802;2023-12-20T09:59:40;55.93;;;31.23;;
74791;SDS011;63319;46.046;17.802;2023-12-20T10:03:01;59.60;;;32.97;;
74791;SDS011;63319;46.046;17.802;2023-12-20T10:06:05;65.68;;;34.15;;
74791;SDS011;63319;46.046;17.802;2023-12-20T10:09:10;62.17;;;33.10;;
74791;SDS011;63319;46.046;17.802;2023-12-20T10:12:13;57.72;;;31.65;;
74791;SDS011;63319;46.046;17.802;2023-12-20T10:15:16;62.28;;;31.83;;
74791;SDS011;63319;46.046;17.802;2023-12-20T10:18:20;57.78;;;32.85;;
74791;SDS011;63319;46.046;17.802;2023-12-20T10:21:24;47.67;;;28.60;;
74791;SDS011;63319;46.046;17.802;2023-12-20T10:24:28;49.85;;;27.77;;
74791;SDS011;63319;46.046;17.802;2023-12-20T10:27:32;44.78;;;27.50;;
74791;SDS011;63319;46.046;17.802;2023-12-20T10:30:36;49.13;;;29.67;;
74791;SDS011;63319;46.046;17.802;2023-12-20T10:33:40;49.05;;;30.02;;
74791;SDS011;63319;46.046;17.802;2023-12-20T10:36:43;47.67;;;27.52;;
74791;SDS011;63319;46.046;17.802;2023-12-20T10:39:50;44.87;;;24.73;;
74791;SDS011;63319;46.046;17.802;2023-12-20T10:42:55;50.97;;;29.88;;
74791;SDS011;63319;46.046;17.802;2023-12-20T10:45:59;58.88;;;31.90;;
74791;SDS011;63319;46.046;17.802;2023-12-20T10:49:04;61.72;;;34.92;;
74791;SDS011;63319;46.046;17.802;2023-12-20T10:52:08;69.68;;;35.80;;
74791;SDS011;63319;46.046;17.802;2023-12-20T10:55:13;60.35;;;32.45;;
74791;SDS011;63319;46.046;17.802;2023-12-20T10:58:17;54.40;;;27.08;;
74791;SDS011;63319;46.046;17.802;2023-12-20T11:01:23;53.83;;;29.03;;
74791;SDS011;63319;46.046;17.802;2023-12-20T11:04:28;72.60;;;34.38;;
74791;SDS011;63319;46.046;17.802;2023-12-20T11:07:42;65.55;;;34.00;;
74791;SDS011;63319;46.046;17.802;2023-12-20T11:10:59;70.33;;;36.33;;
74791;SDS011;63319;46.046;17.802;2023-12-20T11:14:20;66.07;;;35.42;;
74791;SDS011;63319;46.046;17.802;2023-12-20T11:17:26;64.70;;;32.03;;
74791;SDS011;63319;46.046;17.802;2023-12-20T11:20:37;64.60;;;33.17;;
74791;SDS011;63319;46.046;17.802;2023-12-20T11:23:41;61.53;;;32.80;;
74791;SDS011;63319;46.046;17.802;2023-12-20T11:26:48;67.82;;;36.75;;
74791;SDS011;63319;46.046;17.802;2023-12-20T11:29:52;75.55;;;34.88;;
74791;SDS011;63319;46.046;17.802;2023-12-20T11:32:56;69.10;;;37.00;;
74791;SDS011;63319;46.046;17.802;2023-12-20T11:35:59;73.63;;;36.30;;
74791;SDS011;63319;46.046;17.802;2023-12-20T11:39:03;66.30;;;32.00;;
74791;SDS011;63319;46.046;17.802;2023-12-20T11:42:13;99.17;;;42.63;;
74791;SDS011;63319;46.046;17.802;2023-12-20T11:45:19;75.20;;;34.90;;
74791;SDS011;63319;46.046;17.802;2023-12-20T11:48:25;64.38;;;31.92;;
74791;SDS011;63319;46.046;17.802;2023-12-20T11:51:28;67.68;;;32.38;;
74791;SDS011;63319;46.046;17.802;2023-12-20T11:54:31;63.33;;;29.73;;
74791;SDS011;63319;46.046;17.802;2023-12-20T11:57:34;65.55;;;31.67;;
74791;SDS011;63319;46.046;17.802;2023-12-20T12:00:38;61.20;;;28.73;;
74791;SDS011;63319;46.046;17.802;2023-12-20T12:03:40;72.93;;;29.33;;
74791;SDS011;63319;46.046;17.802;2023-12-20T12:06:45;68.20;;;31.73;;
74791;SDS011;63319;46.046;17.802;2023-12-20T12:09:49;81.45;;;38.05;;
74791;SDS011;63319;46.046;17.802;2023-12-20T12:12:52;72.87;;;36.67;;
74791;SDS011;63319;46.046;17.802;2023-12-20T12:15:56;75.82;;;36.13;;
74791;SDS011;63319;46.046;17.802;2023-12-20T12:19:00;66.78;;;32.40;;
74791;SDS011;63319;46.046;17.802;2023-12-20T12:22:08;63.22;;;31.15;;
74791;SDS011;63319;46.046;17.802;2023-12-20T12:25:18;64.22;;;31.33;;
74791;SDS011;63319;46.046;17.802;2023-12-20T12:28:25;63.22;;;31.92;;
74791;SDS011;63319;46.046;17.802;2023-12-20T12:31:31;60.90;;;30.85;;
74791;SDS011;63319;46.046;17.802;2023-12-20T12:34:36;66.03;;;32.87;;
74791;SDS011;63319;46.046;17.802;2023-12-20T12:37:39;64.10;;;30.33;;
74791;SDS011;63319;46.046;17.802;2023-12-20T12:40:43;61.70;;;31.83;;
74791;SDS011;63319;46.046;17.802;2023-12-20T12:43:46;67.97;;;34.73;;
74791;SDS011;63319;46.046;17.802;2023-12-20T12:46:49;66.25;;;32.90;;
74791;SDS011;63319;46.046;17.802;2023-12-20T12:49:53;72.95;;;36.42;;
74791;SDS011;63319;46.046;17.802;2023-12-20T12:52:56;74.65;;;35.85;;
74791;SDS011;63319;46.046;17.802;2023-12-20T12:56:00;56.15;;;30.98;;
74791;SDS011;63319;46.046;17.802;2023-12-20T12:59:02;82.70;;;40.35;;
74791;SDS011;63319;46.046;17.802;2023-12-20T13:02:05;103.07;;;50.58;;
74791;SDS011;63319;46.046;17.802;2023-12-20T13:05:09;68.30;;;34.17;;
74791;SDS011;63319;46.046;17.802;2023-12-20T13:08:12;53.08;;;28.15;;
74791;SDS011;63319;46.046;17.802;2023-12-20T13:11:16;60.60;;;31.73;;
74791;SDS011;63319;46.046;17.802;2023-12-20T13:14:19;58.93;;;30.60;;
74791;SDS011;63319;46.046;17.802;2023-12-20T13:17:22;60.13;;;29.67;;
74791;SDS011;63319;46.046;17.802;2023-12-20T13:20:25;59.17;;;28.73;;
74791;SDS011;63319;46.046;17.802;2023-12-20T13:23:28;59.08;;;29.77;;
74791;SDS011;63319;46.046;17.802;2023-12-20T13:26:31;62.22;;;29.83;;
74791;SDS011;63319;46.046;17.802;2023-12-20T13:29:35;61.08;;;32.67;;
74791;SDS011;63319;46.046;17.802;2023-12-20T13:32:41;60.22;;;33.70;;
74791;SDS011;63319;46.046;17.802;2023-12-20T13:35:44;61.07;;;31.10;;
74791;SDS011;63319;46.046;17.802;2023-12-20T13:38:47;62.15;;;30.58;;
74791;SDS011;63319;46.046;17.802;2023-12-20T13:41:50;60.50;;;31.38;;
74791;SDS011;63319;46.046;17.802;2023-12-20T13:44:53;66.83;;;31.97;;
74791;SDS011;63319;46.046;17.802;2023-12-20T13:47:56;69.70;;;33.15;;
74791;SDS011;63319;46.046;17.802;2023-12-20T13:50:59;82.75;;;40.88;;
74791;SDS011;63319;46.046;17.802;2023-12-20T13:54:02;68.72;;;35.80;;
74791;SDS011;63319;46.046;17.802;2023-12-20T13:57:05;69.85;;;35.78;;
74791;SDS011;63319;46.046;17.802;2023-12-20T14:00:23;79.20;;;37.47;;
74791;SDS011;63319;46.046;17.802;2023-12-20T14:03:25;89.78;;;43.15;;
74791;SDS011;63319;46.046;17.802;2023-12-20T14:06:29;76.20;;;37.63;;
74791;SDS011;63319;46.046;17.802;2023-12-20T14:09:32;74.68;;;34.75;;
74791;SDS011;63319;46.046;17.802;2023-12-20T14:12:37;75.00;;;37.72;;
74791;SDS011;63319;46.046;17.802;2023-12-20T14:15:41;88.60;;;44.13;;
74791;SDS011;63319;46.046;17.802;2023-12-20T14:18:43;105.28;;;51.67;;
74791;SDS011;63319;46.046;17.802;2023-12-20T14:21:46;97.05;;;47.33;;
74791;SDS011;63319;46.046;17.802;2023-12-20T14:24:49;89.88;;;42.65;;
74791;SDS011;63319;46.046;17.802;2023-12-20T14:27:52;88.13;;;44.08;;
74791;SDS011;63319;46.046;17.802;2023-12-20T14:30:56;99.57;;;45.35;;
74791;SDS011;63319;46.046;17.802;2023-12-20T14:33:59;82.55;;;42.53;;
74791;SDS011;63319;46.046;17.802;2023-12-20T14:37:06;90.90;;;45.90;;
74791;SDS011;63319;46.046;17.802;2023-12-20T14:40:09;100.20;;;46.30;;
74791;SDS011;63319;46.046;17.802;2023-12-20T14:43:18;102.88;;;45.80;;
74791;SDS011;63319;46.046;17.802;2023-12-20T14:46:21;91.43;;;42.23;;
74791;SDS011;63319;46.046;17.802;2023-12-20T14:49:23;96.10;;;40.33;;
74791;SDS011;63319;46.046;17.802;2023-12-20T14:52:26;89.82;;;40.28;;
74791;SDS011;63319;46.046;17.802;2023-12-20T14:55:30;89.80;;;38.70;;
74791;SDS011;63319;46.046;17.802;2023-12-20T14:58:33;87.68;;;37.42;;
74791;SDS011;63319;46.046;17.802;2023-12-20T15:01:36;91.40;;;39.75;;
74791;SDS011;63319;46.046;17.802;2023-12-20T15:04:40;88.47;;;38.08;;
74791;SDS011;63319;46.046;17.802;2023-12-20T15:07:43;87.37;;;36.60;;
74791;SDS011;63319;46.046;17.802;2023-12-20T15:10:46;82.85;;;34.83;;
74791;SDS011;63319;46.046;17.802;2023-12-20T15:13:49;92.65;;;40.28;;
74791;SDS011;63319;46.046;17.802;2023-12-20T15:16:58;88.83;;;37.53;;
74791;SDS011;63319;46.046;17.802;2023-12-20T15:20:01;96.32;;;41.95;;
74791;SDS011;63319;46.046;17.802;2023-12-20T15:23:05;92.32;;;40.63;;
74791;SDS011;63319;46.046;17.802;2023-12-20T15:26:09;86.85;;;37.95;;
74791;SDS011;63319;46.046;17.802;2023-12-20T15:29:12;85.22;;;40.03;;
74791;SDS011;63319;46.046;17.802;2023-12-20T15:32:17;90.72;;;39.90;;
74791;SDS011;63319;46.046;17.802;2023-12-20T15:35:23;128.55;;;55.55;;
74791;SDS011;63319;46.046;17.802;2023-12-20T15:38:26;124.27;;;47.87;;
74791;SDS011;63319;46.046;17.802;2023-12-20T15:41:29;107.88;;;43.67;;
74791;SDS011;63319;46.046;17.802;2023-12-20T15:44:32;110.38;;;52.92;;
74791;SDS011;63319;46.046;17.802;2023-12-20T15:47:35;95.23;;;43.07;;
74791;SDS011;63319;46.046;17.802;2023-12-20T15:50:41;105.20;;;46.75;;
74791;SDS011;63319;46.046;17.802;2023-12-20T15:53:44;91.55;;;41.05;;
74791;SDS011;63319;46.046;17.802;2023-12-20T15:56:47;91.95;;;39.78;;
74791;SDS011;63319;46.046;17.802;2023-12-20T15:59:50;82.53;;;36.30;;
74791;SDS011;63319;46.046;17.802;2023-12-20T16:02:53;76.53;;;35.00;;
74791;SDS011;63319;46.046;17.802;2023-12-20T16:05:56;115.05;;;43.35;;
74791;SDS011;63319;46.046;17.802;2023-12-20T16:09:01;93.30;;;39.67;;
74791;SDS011;63319;46.046;17.802;2023-12-20T16:12:04;101.50;;;39.95;;
74791;SDS011;63319;46.046;17.802;2023-12-20T16:15:07;122.40;;;42.45;;
74791;SDS011;63319;46.046;17.802;2023-12-20T16:18:11;124.47;;;43.00;;
74791;SDS011;63319;46.046;17.802;2023-12-20T16:21:14;102.30;;;35.35;;
74791;SDS011;63319;46.046;17.802;2023-12-20T16:24:17;82.38;;;36.85;;
74791;SDS011;63319;46.046;17.802;2023-12-20T16:27:20;97.80;;;40.40;;
74791;SDS011;63319;46.046;17.802;2023-12-20T16:30:23;93.30;;;39.08;;
74791;SDS011;63319;46.046;17.802;2023-12-20T16:33:26;87.53;;;37.03;;
74791;SDS011;63319;46.046;17.802;2023-12-20T16:36:51;99.05;;;37.97;;
74791;SDS011;63319;46.046;17.802;2023-12-20T16:39:54;96.80;;;41.47;;
74791;SDS011;63319;46.046;17.802;2023-12-20T16:42:57;85.20;;;38.88;;
74791;SDS011;63319;46.046;17.802;2023-12-20T16:46:00;90.40;;;41.22;;
74791;SDS011;63319;46.046;17.802;2023-12-20T16:49:08;90.30;;;39.50;;
74791;SDS011;63319;46.046;17.802;2023-12-20T16:52:11;97.05;;;40.47;;
74791;SDS011;63319;46.046;17.802;2023-12-20T16:55:14;87.97;;;37.75;;
74791;SDS011;63319;46.046;17.802;2023-12-20T16:58:17;95.50;;;41.53;;
74791;SDS011;63319;46.046;17.802;2023-12-20T17:01:20;91.97;;;41.15;;
74791;SDS011;63319;46.046;17.802;2023-12-20T17:04:25;133.93;;;54.78;;
74791;SDS011;63319;46.046;17.802;2023-12-20T17:07:28;121.90;;;52.47;;
74791;SDS011;63319;46.046;17.802;2023-12-20T17:10:31;105.70;;;49.63;;
74791;SDS011;63319;46.046;17.802;2023-12-20T17:13:34;123.30;;;61.60;;
74791;SDS011;63319;46.046;17.802;2023-12-20T17:16:37;112.03;;;56.88;;
74791;SDS011;63319;46.046;17.802;2023-12-20T17:19:40;100.03;;;45.73;;
74791;SDS011;63319;46.046;17.802;2023-12-20T17:22:44;105.00;;;50.80;;
74791;SDS011;63319;46.046;17.802;2023-12-20T17:25:47;96.45;;;47.10;;
74791;SDS011;63319;46.046;17.802;2023-12-20T17:28:50;93.10;;;42.75;;
74791;SDS011;63319;46.046;17.802;2023-12-20T17:31:53;102.88;;;47.05;;
74791;SDS011;63319;46.046;17.802;2023-12-20T17:34:56;104.97;;;46.17;;
74791;SDS011;63319;46.046;17.802;2023-12-20T17:37:59;101.90;;;44.95;;